Time;durP1;ratioP1;P1;durP2;ratioP2;P2;SDS_P1;SDS_P2;PMS_P1;PMS_P2;Temp;Humidity;BMP_temperature;BMP_pressure;BME280_temperature;BME280_humidity;BME280_pressure;Samples;Min_cycle;Max_cycle;Signal;HPM_P1;HPM_P2
2023/04/29 00:00:58;;;;;;;24.00;13.97;;;;;;;7.20;69.59;100429.53;1479177;89;21579;-78
2023/04/29 00:03:27;;;;;;;31.33;12.70;;;;;;;7.18;69.78;100433.59;1445582;89;21392;-77
2023/04/29 00:05:52;;;;;;;24.83;12.53;;;;;;;7.16;70.89;100431.59;1445099;89;21473;-77
2023/04/29 00:08:19;;;;;;;27.00;13.40;;;;;;;7.16;70.29;100435.54;1443994;89;21504;-78
2023/04/29 00:10:46;;;;;;;33.43;13.93;;;;;;;7.16;70.20;100434.23;1438989;89;21370;-78
2023/04/29 00:13:12;;;;;;;28.90;13.80;;;;;;;7.18;69.27;100436.71;1447529;90;21368;-77
2023/04/29 00:15:40;;;;;;;28.33;12.57;;;;;;;7.20;69.31;100435.63;1442332;89;22427;-77
2023/04/29 00:18:06;;;;;;;26.53;13.63;;;;;;;7.19;70.58;100424.76;1431168;90;21318;-78
2023/04/29 00:20:32;;;;;;;28.70;15.53;;;;;;;7.18;70.27;100427.02;1447679;89;22307;-78
2023/04/29 00:22:58;;;;;;;24.80;13.93;;;;;;;7.18;70.77;100430.13;1440668;90;21370;-79
2023/04/29 00:25:25;;;;;;;21.73;11.73;;;;;;;7.20;71.39;100434.31;1440862;89;21391;-79
2023/04/29 00:27:51;;;;;;;24.17;10.93;;;;;;;7.26;72.06;100432.15;1434391;90;22323;-78
2023/04/29 00:30:17;;;;;;;22.93;11.13;;;;;;;7.30;72.20;100423.02;1447093;89;21437;-77
2023/04/29 00:32:44;;;;;;;17.40;11.07;;;;;;;7.35;72.54;100430.06;1444592;89;21595;-77
2023/04/29 00:35:10;;;;;;;19.67;10.43;;;;;;;7.39;72.42;100422.25;1442719;89;21393;-77
2023/04/29 00:37:36;;;;;;;20.83;12.27;;;;;;;7.40;72.91;100423.46;1446566;89;21561;-77
2023/04/29 00:40:04;;;;;;;22.23;11.87;;;;;;;7.39;73.34;100420.94;1443620;89;21377;-77
2023/04/29 00:42:35;;;;;;;20.80;11.20;;;;;;;7.36;73.63;100422.03;1525021;90;22177;-79
2023/04/29 00:44:59;;;;;;;23.53;10.73;;;;;;;7.34;74.50;100423.97;1462723;89;21334;-77
2023/04/29 00:47:25;;;;;;;23.27;10.87;;;;;;;7.33;74.19;100423.59;1374115;89;21407;-78
2023/04/29 00:49:51;;;;;;;21.73;11.97;;;;;;;7.33;73.59;100427.55;1374404;89;21274;-77
2023/04/29 00:52:18;;;;;;;19.00;11.53;;;;;;;7.34;73.81;100424.45;1373957;89;21312;-78
2023/04/29 00:54:45;;;;;;;18.43;11.70;;;;;;;7.36;73.73;100425.14;1378683;89;21363;-79
2023/04/29 00:57:12;;;;;;;19.07;9.80;;;;;;;7.40;74.99;100431.36;1373665;89;21488;-78
2023/04/29 00:59:38;;;;;;;20.40;10.63;;;;;;;7.44;74.92;100430.13;1373317;89;21267;-78
2023/04/29 01:02:05;;;;;;;18.40;11.20;;;;;;;7.48;75.61;100428.10;1374045;89;21452;-77
2023/04/29 01:04:31;;;;;;;29.73;13.93;;;;;;;7.51;75.24;100423.89;1372954;89;22140;-78
2023/04/29 01:07:17;;;;;;;16.57;9.93;;;;;;;7.56;75.61;100424.32;1379640;89;21274;-77
2023/04/29 01:10:16;;;;;;;22.23;11.33;;;;;;;7.59;75.29;100416.65;1528544;89;21415;-79
2023/04/29 01:13:08;;;;;;;19.90;12.13;;;;;;;7.63;75.43;100426.81;1528127;90;21442;-78
2023/04/29 01:16:04;;;;;;;15.73;10.87;;;;;;;7.66;75.45;100426.55;1374791;91;21334;-79
2023/04/29 01:18:42;;;;;;;20.93;11.40;;;;;;;7.69;75.37;100422.34;1372839;89;21274;-79
2023/04/29 01:21:09;;;;;;;16.47;10.43;;;;;;;7.68;76.20;100423.31;1511040;90;21275;-78
2023/04/29 01:23:35;;;;;;;15.07;9.63;;;;;;;7.66;76.00;100417.81;1373792;89;21289;-80
2023/04/29 01:26:01;;;;;;;14.00;9.47;;;;;;;7.64;76.68;100425.84;1373671;89;22199;-79
2023/04/29 01:28:54;;;;;;;16.33;10.73;;;;;;;7.61;75.42;100426.58;1373946;90;21490;-80
2023/04/29 01:31:33;;;;;;;17.57;10.43;;;;;;;7.55;77.65;100423.98;1528833;89;21304;-79
2023/04/29 01:34:11;;;;;;;17.47;10.83;;;;;;;7.48;77.12;100427.23;1378144;90;21288;-77
2023/04/29 01:37:20;;;;;;;17.87;10.73;;;;;;;7.41;75.73;100419.85;1461316;90;22117;-77
2023/04/29 01:39:51;;;;;;;15.83;10.40;;;;;;;7.42;75.03;100424.63;1371675;89;21303;-79
2023/04/29 01:42:25;;;;;;;17.00;10.57;;;;;;;7.36;74.80;100433.87;1372641;91;21400;-79
2023/04/29 01:44:56;;;;;;;17.60;10.13;;;;;;;7.34;74.23;100432.36;1371840;90;21407;-79
2023/04/29 01:47:22;;;;;;;19.50;9.85;;;;;;;7.35;74.08;100427.44;1504262;90;21511;-79
2023/04/29 01:49:49;;;;;;;18.87;10.07;;;;;;;7.39;74.56;100438.05;1374191;89;21326;-79
2023/04/29 01:52:15;;;;;;;22.93;10.97;;;;;;;7.41;75.26;100440.09;1374532;89;21398;-79
2023/04/29 01:54:42;;;;;;;12.93;9.00;;;;;;;7.44;75.70;100443.30;1374300;89;21193;-78
2023/04/29 01:57:08;;;;;;;13.90;9.07;;;;;;;7.47;75.97;100439.58;1379772;89;22342;-78
2023/04/29 01:59:35;;;;;;;15.03;8.30;;;;;;;7.49;75.84;100440.30;1450497;89;21355;-78
2023/04/29 02:02:01;;;;;;;16.43;9.47;;;;;;;7.46;75.86;100443.19;1451314;89;22250;-78
2023/04/29 02:04:27;;;;;;;14.27;9.27;;;;;;;7.48;75.20;100439.09;1446741;89;22598;-78
2023/04/29 02:06:53;;;;;;;15.47;10.47;;;;;;;7.51;75.00;100432.25;1447348;89;21377;-78
2023/04/29 02:09:20;;;;;;;17.43;11.27;;;;;;;7.52;75.77;100428.19;1449632;89;21569;-76
2023/04/29 02:11:46;;;;;;;17.57;10.03;;;;;;;7.50;74.56;100433.22;1427935;90;22176;-77
2023/04/29 02:14:13;;;;;;;15.93;10.07;;;;;;;7.52;74.34;100437.41;1451859;89;21399;-77
2023/04/29 02:16:39;;;;;;;20.37;9.43;;;;;;;7.50;74.30;100438.00;1444572;89;21528;-77
2023/04/29 02:19:05;;;;;;;32.60;11.77;;;;;;;7.53;74.34;100440.38;1446257;90;22234;-78
2023/04/29 02:21:31;;;;;;;22.90;10.80;;;;;;;7.53;74.58;100434.28;1447631;90;21400;-80
2023/04/29 02:23:57;;;;;;;18.03;10.83;;;;;;;7.53;74.25;100432.48;1440762;90;21538;-77
2023/04/29 02:26:23;;;;;;;12.93;9.30;;;;;;;7.56;74.19;100428.27;1446859;89;21384;-77
2023/04/29 02:28:51;;;;;;;12.53;9.03;;;;;;;7.59;74.17;100433.77;1442135;90;21332;-77
2023/04/29 02:31:17;;;;;;;15.40;9.27;;;;;;;7.61;74.16;100427.90;1445278;89;21384;-78
2023/04/29 02:33:43;;;;;;;15.80;10.23;;;;;;;7.63;74.17;100430.77;1443633;89;22294;-77
2023/04/29 02:36:09;;;;;;;16.23;8.60;;;;;;;7.66;74.53;100428.36;1443453;90;21378;-77
2023/04/29 02:38:36;;;;;;;19.07;9.83;;;;;;;7.67;74.08;100430.84;1444074;89;21584;-76
2023/04/29 02:41:02;;;;;;;27.73;11.07;;;;;;;7.67;74.27;100426.89;1445243;89;22226;-78
2023/04/29 02:43:31;;;;;;;15.10;9.70;;;;;;;7.66;73.56;100424.41;1448737;89;22416;-79
2023/04/29 02:45:59;;;;;;;18.90;11.03;;;;;;;7.64;73.27;100424.52;1444530;89;22383;-79
2023/04/29 02:48:25;;;;;;;16.53;11.47;;;;;;;7.63;73.05;100423.34;1372710;89;21245;-78
2023/04/29 02:50:51;;;;;;;18.83;11.10;;;;;;;7.63;73.04;100421.55;1374110;89;22236;-80
2023/04/29 02:53:18;;;;;;;14.67;9.50;;;;;;;7.63;73.24;100422.03;1396721;89;21370;-78
2023/04/29 02:55:44;;;;;;;15.57;10.63;;;;;;;7.63;73.44;100423.34;1452540;89;21614;-80
2023/04/29 02:58:10;;;;;;;17.63;10.30;;;;;;;7.60;72.67;100419.17;1441667;89;22228;-78
2023/04/29 03:00:37;;;;;;;15.80;10.87;;;;;;;7.62;72.24;100420.34;1449318;89;21304;-77
2023/04/29 03:03:03;;;;;;;15.07;9.50;;;;;;;7.63;72.62;100421.55;1447924;89;21400;-77
2023/04/29 03:05:29;;;;;;;15.77;9.27;;;;;;;7.65;72.86;100416.13;1448604;89;22501;-76
2023/04/29 03:07:55;;;;;;;14.97;9.37;;;;;;;7.66;72.41;100416.02;1452002;89;21370;-76
2023/04/29 03:10:21;;;;;;;16.37;9.00;;;;;;;7.73;72.23;100421.59;1445678;89;21347;-77
2023/04/29 03:12:47;;;;;;;18.60;10.20;;;;;;;7.77;72.19;100420.84;1446544;89;21503;-77
2023/04/29 03:15:14;;;;;;;13.37;10.47;;;;;;;7.80;72.30;100423.25;1444125;89;22323;-77
2023/04/29 03:17:40;;;;;;;20.00;10.57;;;;;;;7.81;72.34;100422.27;1443280;89;22250;-76
2023/04/29 03:20:09;;;;;;;17.90;10.03;;;;;;;7.83;72.49;100416.40;1440637;89;21437;-77
2023/04/29 03:22:35;;;;;;;17.43;10.77;;;;;;;7.84;72.09;100412.79;1442590;89;22339;-76
2023/04/29 03:25:02;;;;;;;17.23;9.90;;;;;;;7.84;71.81;100420.69;1440147;89;21399;-77
2023/04/29 03:27:28;;;;;;;18.90;10.13;;;;;;;7.83;71.94;100419.03;1444090;89;21355;-79
2023/04/29 03:29:54;;;;;;;16.60;9.40;;;;;;;7.76;71.70;100420.02;1443432;89;21539;-79
2023/04/29 03:32:21;;;;;;;17.37;10.10;;;;;;;7.74;71.99;100422.42;1444624;89;21844;-78
2023/04/29 03:34:48;;;;;;;12.43;9.13;;;;;;;7.73;71.26;100416.32;1445023;89;22435;-79
2023/04/29 03:37:19;;;;;;;21.97;11.00;;;;;;;7.74;71.29;100421.10;1443781;89;21503;-79
2023/04/29 03:39:45;;;;;;;19.97;9.70;;;;;;;7.76;71.76;100419.19;1445351;89;21355;-79
2023/04/29 03:42:11;;;;;;;22.77;9.53;;;;;;;7.73;70.83;100420.77;1444620;89;21459;-79
2023/04/29 03:44:37;;;;;;;14.70;8.10;;;;;;;7.73;70.29;100428.66;1445041;89;22434;-78
2023/04/29 03:47:03;;;;;;;16.67;9.77;;;;;;;7.78;70.36;100427.80;1443898;89;21348;-79
2023/04/29 03:49:30;;;;;;;14.40;8.77;;;;;;;7.85;70.33;100422.35;1450564;89;21385;-79
2023/04/29 03:51:56;;;;;;;20.17;9.50;;;;;;;7.91;70.27;100422.69;1450228;89;21400;-78
2023/04/29 03:54:22;;;;;;;26.43;9.33;;;;;;;7.96;70.10;100424.08;1448088;89;21385;-78
2023/04/29 03:56:48;;;;;;;19.47;9.43;;;;;;;7.99;70.05;100427.28;1449555;89;21533;-78
2023/04/29 03:59:15;;;;;;;12.17;8.23;;;;;;;8.02;70.59;100426.19;1446528;89;21348;-80
2023/04/29 04:01:41;;;;;;;15.77;8.57;;;;;;;7.99;70.95;100427.77;1448132;89;21546;-78
2023/04/29 04:04:07;;;;;;;15.83;8.97;;;;;;;7.94;70.25;100431.27;1448908;89;21886;-77
2023/04/29 04:06:33;;;;;;;21.30;9.30;;;;;;;7.90;70.34;100433.34;1444704;89;22160;-79
2023/04/29 04:09:00;;;;;;;18.80;9.10;;;;;;;7.90;70.30;100425.44;1447845;89;21392;-80
2023/04/29 04:11:26;;;;;;;13.47;8.87;;;;;;;7.90;69.84;100428.08;1445194;89;22459;-79
2023/04/29 04:13:52;;;;;;;12.93;8.60;;;;;;;7.93;69.92;100429.12;1451037;89;21832;-79
2023/04/29 04:16:19;;;;;;;13.30;8.63;;;;;;;7.96;70.48;100431.98;1446453;89;21569;-78
2023/04/29 04:18:45;;;;;;;17.87;9.63;;;;;;;7.98;70.95;100424.80;1444858;89;21415;-79
2023/04/29 04:21:12;;;;;;;15.47;8.27;;;;;;;7.97;70.97;100426.60;1450906;89;21451;-80
2023/04/29 04:23:43;;;;;;;15.03;7.97;;;;;;;7.99;70.86;100415.91;1444184;89;21562;-79
2023/04/29 04:26:07;;;;;;;20.10;10.53;;;;;;;8.05;70.86;100418.84;1376895;90;21349;-78
2023/04/29 04:28:33;;;;;;;16.43;9.87;;;;;;;8.10;70.65;100417.98;1373790;89;21422;-79
2023/04/29 04:31:00;;;;;;;17.50;10.83;;;;;;;8.13;70.33;100416.39;1373960;89;22177;-78
2023/04/29 04:33:26;;;;;;;15.13;9.83;;;;;;;8.16;70.80;100415.78;1374157;89;21393;-76
2023/04/29 04:35:52;;;;;;;15.07;8.87;;;;;;;8.19;70.99;100414.20;1373565;89;21274;-76
2023/04/29 04:38:18;;;;;;;13.93;8.50;;;;;;;8.22;70.95;100409.98;1385094;89;21362;-79
2023/04/29 04:40:45;;;;;;;15.83;9.20;;;;;;;8.21;70.85;100410.95;1374035;89;21503;-77
2023/04/29 04:43:12;;;;;;;17.67;9.40;;;;;;;8.23;70.12;100410.31;1373660;89;21356;-78
2023/04/29 04:45:38;;;;;;;14.27;7.60;;;;;;;8.27;70.08;100409.11;1417314;91;22162;-79
2023/04/29 04:48:04;;;;;;;15.80;9.97;;;;;;;8.30;70.44;100406.20;1374140;89;21480;-78
2023/04/29 04:50:30;;;;;;;12.03;8.60;;;;;;;8.33;70.86;100408.08;1374059;89;21408;-78
2023/04/29 04:52:57;;;;;;;15.33;8.60;;;;;;;8.39;70.91;100402.78;1374181;89;22126;-76
2023/04/29 04:55:23;;;;;;;11.23;8.47;;;;;;;8.49;70.82;100408.11;1373686;89;21254;-78
2023/04/29 04:57:50;;;;;;;17.83;9.70;;;;;;;8.59;70.43;100411.10;1373709;89;22237;-78
2023/04/29 05:00:16;;;;;;;19.43;9.80;;;;;;;8.71;70.13;100401.27;1374587;89;21267;-77
2023/04/29 05:02:43;;;;;;;14.80;7.90;;;;;;;8.84;69.88;100401.02;1373879;89;21349;-78
2023/04/29 05:05:09;;;;;;;19.50;10.07;;;;;;;8.96;69.40;100405.69;1374392;89;21392;-77
2023/04/29 05:07:35;;;;;;;15.07;8.90;;;;;;;9.07;68.70;100410.02;1374053;89;22034;-77
2023/04/29 05:10:02;;;;;;;14.53;9.20;;;;;;;9.14;68.42;100407.98;1379337;89;21304;-77
2023/04/29 05:12:34;;;;;;;18.10;11.03;;;;;;;9.22;68.16;100411.25;1372971;89;21282;-77
2023/04/29 05:14:57;;;;;;;17.60;10.80;;;;;;;9.26;68.03;100410.85;1489390;89;21399;-77
2023/04/29 05:17:24;;;;;;;16.33;9.00;;;;;;;9.28;67.59;100408.05;1447546;89;21546;-77
2023/04/29 05:19:50;;;;;;;18.20;8.83;;;;;;;9.31;67.58;100409.09;1444258;89;21362;-76
2023/04/29 05:22:16;;;;;;;13.63;8.30;;;;;;;9.34;67.21;100411.94;1449621;89;22353;-78
2023/04/29 05:24:42;;;;;;;18.67;9.63;;;;;;;9.34;67.04;100411.45;1445417;89;21549;-77
2023/04/29 05:27:08;;;;;;;19.37;10.37;;;;;;;9.37;66.95;100421.73;1446200;89;21370;-78
2023/04/29 05:29:34;;;;;;;16.67;11.17;;;;;;;9.39;67.04;100411.88;1443470;89;21348;-78
2023/04/29 05:32:01;;;;;;;14.63;10.20;;;;;;;9.42;67.06;100419.52;1447575;89;21370;-78
2023/04/29 05:34:27;;;;;;;18.87;11.40;;;;;;;9.46;66.89;100418.24;1449515;89;21310;-79
2023/04/29 05:36:53;;;;;;;16.93;10.80;;;;;;;9.47;67.08;100413.33;1447273;89;22308;-79
2023/04/29 05:39:19;;;;;;;22.93;9.50;;;;;;;9.53;67.40;100415.06;1440875;89;21429;-79
2023/04/29 05:41:45;;;;;;;18.97;10.20;;;;;;;9.63;67.46;100419.83;1437049;89;21362;-78
2023/04/29 05:44:11;;;;;;;15.63;11.37;;;;;;;9.70;66.98;100420.45;1446359;89;22390;-79
2023/04/29 05:46:39;;;;;;;16.50;10.40;;;;;;;9.74;66.45;100417.03;1446703;89;21870;-76
2023/04/29 05:49:05;;;;;;;20.50;10.40;;;;;;;9.78;66.17;100417.11;1525028;89;21526;-77
2023/04/29 05:51:31;;;;;;;20.30;10.87;;;;;;;9.82;66.08;100417.16;1374489;89;22192;-77
2023/04/29 05:53:59;;;;;;;15.47;9.80;;;;;;;9.90;66.06;100419.92;1359733;91;21422;-76
2023/04/29 05:56:25;;;;;;;15.63;9.83;;;;;;;9.99;66.52;100414.76;1372437;89;21245;-77
2023/04/29 05:58:51;;;;;;;13.93;10.23;;;;;;;10.07;66.27;100420.13;1373506;89;21267;-77
2023/04/29 06:01:17;;;;;;;18.30;9.77;;;;;;;10.17;65.82;100430.20;1378264;89;21489;-77
2023/04/29 06:03:44;;;;;;;18.33;11.03;;;;;;;10.24;65.90;100424.69;1445643;89;21429;-77
2023/04/29 06:06:11;;;;;;;16.83;10.20;;;;;;;10.30;65.74;100420.17;1445706;89;21496;-77
2023/04/29 06:08:37;;;;;;;19.70;11.40;;;;;;;10.37;65.54;100419.91;1444337;89;21607;-76
2023/04/29 06:11:04;;;;;;;18.70;10.03;;;;;;;10.44;64.82;100419.33;1445477;89;21400;-77
2023/04/29 06:13:35;;;;;;;15.13;10.10;;;;;;;10.52;64.69;100422.08;1450296;89;21521;-79
2023/04/29 06:16:01;;;;;;;16.70;11.18;;;;;;;10.64;64.76;100428.83;1447036;89;21310;-78
2023/04/29 06:18:27;;;;;;;22.63;11.13;;;;;;;10.72;64.59;100423.63;1447978;89;21385;-80
2023/04/29 06:20:53;;;;;;;15.80;9.43;;;;;;;10.84;64.69;100417.13;1449057;89;21605;-77
2023/04/29 06:23:19;;;;;;;14.97;10.30;;;;;;;10.95;64.08;100409.97;1444180;89;21385;-77
2023/04/29 06:25:46;;;;;;;16.23;10.67;;;;;;;11.07;63.61;100418.02;1448300;89;21435;-77
2023/04/29 06:28:12;;;;;;;17.23;11.43;;;;;;;11.16;63.36;100415.78;1445512;89;21640;-77
2023/04/29 06:30:38;;;;;;;21.97;11.40;;;;;;;11.24;63.20;100408.41;1447304;90;21377;-76
2023/04/29 06:33:04;;;;;;;18.70;10.57;;;;;;;11.33;62.96;100411.47;1443334;89;21444;-78
2023/04/29 06:35:31;;;;;;;17.00;9.23;;;;;;;11.43;62.41;100415.38;1447334;89;21614;-79
2023/04/29 06:37:57;;;;;;;16.63;8.93;;;;;;;11.54;61.83;100408.51;1448714;89;21459;-80
2023/04/29 06:40:23;;;;;;;17.90;9.40;;;;;;;11.67;61.24;100415.55;1442477;90;21481;-79
2023/04/29 06:42:51;;;;;;;18.30;10.43;;;;;;;11.79;60.92;100412.64;1426638;90;21465;-79
2023/04/29 06:45:17;;;;;;;17.57;8.93;;;;;;;11.90;60.70;100410.59;1450357;89;21436;-77
2023/04/29 06:47:43;;;;;;;15.53;8.80;;;;;;;12.01;60.30;100410.83;1448628;89;21430;-77
2023/04/29 06:50:10;;;;;;;17.33;9.20;;;;;;;12.09;59.95;100412.70;1445924;89;22413;-79
2023/04/29 06:52:36;;;;;;;14.70;9.23;;;;;;;12.19;60.19;100405.45;1448422;89;21415;-77
2023/04/29 06:55:02;;;;;;;13.33;8.70;;;;;;;12.27;59.79;100401.50;1449019;89;21451;-79
2023/04/29 06:57:28;;;;;;;14.60;10.53;;;;;;;12.39;59.41;100404.70;1448480;89;21639;-79
2023/04/29 06:59:55;;;;;;;14.23;9.77;;;;;;;12.51;59.70;100403.41;1404074;89;21585;-79
2023/04/29 07:02:21;;;;;;;20.17;11.40;;;;;;;12.61;59.64;100397.48;1374269;89;21275;-80
2023/04/29 07:04:48;;;;;;;15.47;9.47;;;;;;;12.72;58.51;100395.54;1373860;89;22390;-79
2023/04/29 07:07:14;;;;;;;15.83;8.37;;;;;;;12.81;58.50;100392.72;1373200;89;21216;-78
2023/04/29 07:09:41;;;;;;;10.53;7.97;;;;;;;12.96;57.63;100392.09;1374380;89;21483;-79
2023/04/29 07:12:07;;;;;;;13.60;8.67;;;;;;;13.17;57.60;100396.92;1500998;90;21478;-79
2023/04/29 07:14:33;;;;;;;14.77;8.87;;;;;;;13.35;55.36;100395.45;1374185;89;21333;-78
2023/04/29 07:16:59;;;;;;;14.53;8.00;;;;;;;13.46;56.20;100389.30;1374382;89;21415;-77
2023/04/29 07:19:26;;;;;;;16.33;7.47;;;;;;;13.69;56.72;100392.60;1374239;89;21245;-79
2023/04/29 07:21:52;;;;;;;15.03;7.20;;;;;;;13.85;55.83;100391.25;1374010;89;21422;-79
2023/04/29 07:24:18;;;;;;;11.70;7.17;;;;;;;13.98;55.74;100395.55;1373874;89;21297;-78
2023/04/29 07:26:44;;;;;;;14.87;6.30;;;;;;;14.11;54.95;100402.98;1380250;89;21452;-76
2023/04/29 07:29:11;;;;;;;9.80;6.60;;;;;;;14.22;54.29;100393.81;1373867;89;21260;-75
2023/04/29 07:31:37;;;;;;;9.47;6.43;;;;;;;14.36;53.82;100395.75;1373966;89;21460;-75
2023/04/29 07:34:03;;;;;;;14.67;6.27;;;;;;;14.47;52.60;100395.84;1374495;89;21267;-77
2023/04/29 07:36:36;;;;;;;8.13;5.57;;;;;;;14.51;50.66;100388.37;1373875;89;21246;-75
2023/04/29 07:39:03;;;;;;;9.93;5.40;;;;;;;14.53;49.26;100393.03;1513934;90;22242;-76
2023/04/29 07:41:31;;;;;;;9.90;5.50;;;;;;;14.63;50.08;100397.65;1371575;90;21319;-77
2023/04/29 07:43:57;;;;;;;12.47;5.30;;;;;;;14.73;49.30;100391.61;1405524;90;21555;-77
2023/04/29 07:46:24;;;;;;;12.20;5.33;;;;;;;14.84;48.22;100399.17;1447037;89;22381;-77
2023/04/29 07:48:51;;;;;;;10.03;5.67;;;;;;;14.88;47.98;100397.84;1450314;89;21526;-78
2023/04/29 07:51:18;;;;;;;14.77;5.83;;;;;;;14.98;48.14;100400.77;1449465;89;21355;-77
2023/04/29 07:53:44;;;;;;;8.20;5.83;;;;;;;15.12;48.03;100400.00;1426751;90;22448;-76
2023/04/29 07:56:10;;;;;;;18.57;6.30;;;;;;;15.24;46.69;100405.23;1446266;90;21348;-77
2023/04/29 07:58:36;;;;;;;11.73;6.67;;;;;;;15.32;46.30;100409.17;1440111;89;21614;-77
2023/04/29 08:01:10;;;;;;;52.30;25.73;;;;;;;15.32;45.85;100411.84;1449016;89;21576;-78
2023/04/29 08:03:38;;;;;;;15.77;8.30;;;;;;;15.37;46.91;100409.98;1444480;89;21444;-77
2023/04/29 08:06:06;;;;;;;12.67;7.33;;;;;;;15.48;46.45;100410.89;1377390;89;22192;-75
2023/04/29 08:08:32;;;;;;;9.47;7.20;;;;;;;15.62;46.65;100408.42;1528720;89;22096;-78
2023/04/29 08:10:59;;;;;;;20.67;15.33;;;;;;;15.62;44.14;100414.58;1373947;89;21231;-77
2023/04/29 08:13:25;;;;;;;13.03;8.70;;;;;;;15.40;44.51;100408.29;1373356;89;21230;-76
2023/04/29 08:15:52;;;;;;;9.93;7.10;;;;;;;15.53;45.16;100409.83;1374167;89;21253;-76
2023/04/29 08:18:18;;;;;;;11.50;6.00;;;;;;;15.73;45.59;100416.02;1373055;89;22210;-76
2023/04/29 08:20:46;;;;;;;9.93;7.47;;;;;;;15.89;45.17;100420.38;1379621;89;21260;-80
2023/04/29 08:23:13;;;;;;;10.47;7.60;;;;;;;15.97;45.47;100418.97;1357868;91;22080;-81
2023/04/29 08:25:42;;;;;;;10.90;6.50;;;;;;;16.01;43.11;100420.25;1373595;89;21349;-82
2023/04/29 08:28:09;;;;;;;11.03;5.83;;;;;;;16.06;44.24;100420.54;1370281;90;22118;-79
2023/04/29 08:30:40;;;;;;;9.50;5.40;;;;;;;16.11;44.37;100420.82;1372991;89;21275;-81
2023/04/29 08:33:07;;;;;;;;;;;;;;;16.20;44.77;100425.05;1374358;89;21385;-78
2023/04/29 08:35:36;;;;;;;12.13;5.43;;;;;;;16.32;44.61;100425.41;1379208;89;20294;-81
2023/04/29 08:38:03;;;;;;;17.63;6.37;;;;;;;16.43;44.01;100422.79;1527005;90;21318;-81
2023/04/29 08:40:30;;;;;;;9.13;5.47;;;;;;;16.49;43.06;100427.38;1497973;89;21629;-82
2023/04/29 08:42:57;;;;;;;14.10;7.07;;;;;;;16.45;42.93;100422.08;1445664;89;21392;-83
2023/04/29 08:45:27;;;;;;;9.30;6.43;;;;;;;16.50;43.04;100415.67;1370692;89;21332;-82
2023/04/29 08:58:37;;;;;;;10.70;6.47;;;;;;;16.62;42.27;100416.84;1360342;89;21635;-83
2023/04/29 09:01:09;;;;;;;12.90;6.17;;;;;;;16.72;42.46;100417.08;1495392;90;21356;-83
2023/04/29 09:04:25;;;;;;;9.77;5.70;;;;;;;16.84;41.89;100414.26;1527833;89;21316;-82
2023/04/29 09:06:54;;;;;;;8.70;5.67;;;;;;;16.89;40.65;100416.69;1376352;88;21264;-80
2023/04/29 09:09:21;;;;;;;14.67;4.50;;;;;;;17.05;41.17;100414.27;1537011;88;21325;-82
2023/04/29 09:11:47;;;;;;;12.83;4.80;;;;;;;17.28;40.92;100410.58;1369385;90;22327;-85
2023/04/29 09:14:15;;;;;;;8.63;5.57;;;;;;;17.46;40.25;100402.91;1372936;88;21322;-81
2023/04/29 09:16:43;;;;;;;10.40;5.33;;;;;;;17.73;40.05;100407.16;1368630;90;21338;-81
2023/04/29 09:19:17;;;;;;;8.40;4.67;;;;;;;18.02;39.88;100404.80;1371451;91;21278;-84
2023/04/29 09:21:46;;;;;;;11.00;6.03;;;;;;;17.99;36.92;100398.50;1436729;90;22446;-83
2023/04/29 09:24:16;;;;;;;7.17;4.45;;;;;;;17.70;36.59;100403.02;1438216;90;21424;-81
2023/04/29 09:26:43;;;;;;;12.55;4.45;;;;;;;17.53;36.01;100397.12;1428037;90;22210;-82
2023/04/29 09:29:17;;;;;;;7.83;3.80;;;;;;;17.14;35.15;100398.92;1433018;90;21484;-82
2023/04/29 09:31:44;;;;;;;13.07;4.57;;;;;;;16.85;34.33;100402.54;1439266;90;21410;-81
2023/04/29 09:34:11;;;;;;;11.67;4.93;;;;;;;17.15;37.83;100391.24;1431328;90;22017;-82
2023/04/29 09:36:47;;;;;;;6.77;3.83;;;;;;;17.52;37.90;100392.80;1424804;89;22040;-80
2023/04/29 09:39:19;;;;;;;9.27;4.30;;;;;;;17.88;37.51;100391.84;1452055;89;21331;-82
2023/04/29 09:41:58;;;;;;;12.33;5.03;;;;;;;18.07;36.69;100388.12;1432493;90;22454;-81
2023/04/29 09:44:30;;;;;;;9.10;4.40;;;;;;;18.45;37.97;100384.00;1440313;90;22786;-83
2023/04/29 09:47:08;;;;;;;8.03;4.30;;;;;;;19.03;37.36;100380.06;1430318;89;22361;-82
2023/04/29 09:49:44;;;;;;;10.72;4.25;;;;;;;19.40;36.85;100371.94;1439048;89;21502;-82
2023/04/29 09:52:16;;;;;;;6.47;3.72;;;;;;;19.74;35.75;100376.80;1414592;90;21551;-82
2023/04/29 09:54:43;;;;;;;9.85;4.35;;;;;;;20.00;34.85;100374.58;1374429;91;21300;-81
2023/04/29 09:57:12;;;;;;;23.05;6.15;;;;;;;20.32;34.89;100373.34;1376949;90;21330;-84
2023/04/29 09:59:40;;;;;;;9.78;4.25;;;;;;;20.48;34.09;100371.48;1426982;90;21299;-82
2023/04/29 10:02:14;;;;;;;6.25;4.00;;;;;;;20.75;33.90;100366.03;1469770;88;21520;-81
2023/04/29 10:04:41;;;;;;;14.30;4.55;;;;;;;20.95;33.90;100371.58;1402436;88;21693;-76
2023/04/29 10:07:10;;;;;;;9.60;3.80;;;;;;;20.89;32.99;100367.08;1444259;91;21412;-81
2023/04/29 10:09:38;;;;;;;9.90;6.28;;;;;;;20.90;32.32;100365.20;1413779;91;21412;-80
2023/04/29 10:12:06;;;;;;;7.75;4.28;;;;;;;20.92;32.57;100361.78;1438455;90;21561;-83
2023/04/29 10:14:41;;;;;;;12.47;4.40;;;;;;;20.48;29.17;100361.59;1433762;91;22389;-81
2023/04/29 10:17:16;;;;;;;9.65;3.47;;;;;;;19.75;30.36;100357.78;1437968;92;21408;-84
2023/04/29 10:19:54;;;;;;;9.80;3.87;;;;;;;19.06;30.66;100355.52;1391078;93;21465;-80
2023/04/29 10:22:31;;;;;;;8.68;4.45;;;;;;;18.89;33.13;100356.42;1408403;92;21459;-80
2023/04/29 10:25:00;;;;;;;9.70;3.60;;;;;;;19.18;33.72;100353.86;1401467;92;21472;-84
2023/04/29 10:27:28;;;;;;;13.90;3.30;;;;;;;19.61;33.79;100350.75;1410226;92;21430;-84
2023/04/29 10:29:57;;;;;;;12.20;3.60;;;;;;;20.03;33.11;100357.52;1345675;92;21763;-81
2023/04/29 10:32:26;;;;;;;9.50;4.10;;;;;;;20.33;32.71;100345.42;1413747;92;22371;-81
2023/04/29 10:34:54;;;;;;;10.63;3.05;;;;;;;20.57;32.03;100353.28;1408487;92;22796;-80
2023/04/29 10:37:22;;;;;;;11.97;5.45;;;;;;;20.61;30.91;100350.48;1375887;92;21460;-84
2023/04/29 10:40:09;;;;;;;17.17;7.42;;;;;;;20.46;29.42;100343.50;1405837;93;21444;-85
2023/04/29 10:42:45;;;;;;;8.55;4.22;;;;;;;20.31;30.11;100350.17;1387402;94;21725;-83
2023/04/29 10:45:37;;;;;;;7.45;3.70;;;;;;;20.39;31.35;100337.84;1419269;92;21716;-83
2023/04/29 10:48:10;;;;;;;5.85;3.95;;;;;;;20.56;30.98;100332.83;1413445;92;21384;-85
2023/04/29 10:50:51;;;;;;;14.28;4.53;;;;;;;20.57;31.13;100333.97;1413937;92;21311;-84
2023/04/29 10:53:20;;;;;;;8.20;4.97;;;;;;;20.67;31.47;100330.27;1409008;93;22351;-86
2023/04/29 10:55:50;;;;;;;15.58;9.05;;;;;;;20.66;30.76;100324.59;1406569;92;21460;-87
2023/04/29 10:58:45;;;;;;;9.33;4.80;;;;;;;20.72;31.53;100326.42;1395070;93;21368;-86
2023/04/29 11:01:14;;;;;;;7.92;4.22;;;;;;;20.78;32.21;100319.88;1410395;92;21356;-81
2023/04/29 11:03:59;;;;;;;10.23;5.00;;;;;;;20.81;31.53;100308.16;1407115;93;21472;-86
2023/04/29 11:06:38;;;;;;;7.75;3.62;;;;;;;20.79;32.03;100304.85;1408107;93;21729;-84
2023/04/29 11:09:29;;;;;;;6.30;4.00;;;;;;;20.89;31.66;100305.73;1404134;92;21355;-86
2023/04/29 11:12:10;;;;;;;15.08;3.52;;;;;;;20.94;31.96;100307.22;1362139;96;22504;-86
2023/04/29 11:14:44;;;;;;;9.58;3.42;;;;;;;21.12;31.91;100303.27;1408185;90;21912;-84
2023/04/29 11:17:16;;;;;;;9.50;4.58;;;;;;;21.10;31.11;100301.31;1435686;90;21525;-84
2023/04/29 11:19:48;;;;;;;6.35;3.67;;;;;;;21.13;31.64;100294.14;1419581;92;21444;-86
2023/04/29 11:22:29;;;;;;;9.25;4.12;;;;;;;21.27;31.63;100296.73;1439475;91;21369;-87
2023/04/29 11:25:05;;;;;;;7.78;2.77;;;;;;;21.32;31.84;100293.67;1435891;91;22174;-83
2023/04/29 11:27:40;;;;;;;5.92;2.72;;;;;;;21.10;30.95;100289.73;1420357;91;21426;-87
2023/04/29 11:30:08;;;;;;;6.08;3.15;;;;;;;21.11;31.43;100285.45;1433999;91;21419;-85
2023/04/29 11:32:41;;;;;;;5.60;3.17;;;;;;;21.16;31.61;100284.80;1430455;91;21375;-86
2023/04/29 11:35:16;;;;;;;6.12;3.12;;;;;;;21.05;30.76;100282.30;1435896;91;21338;-85
2023/04/29 11:37:45;;;;;;;7.28;3.47;;;;;;;20.85;31.28;100277.61;1436981;91;21583;-85